sensor_id;sensor_type;location;lat;lon;timestamp;temperature;humidity
9824;DHT22;4951;50.778;7.196;2023-04-25T00:02:00;7.60;1.00
9824;DHT22;4951;50.778;7.196;2023-04-25T00:07:30;7.60;1.00
9824;DHT22;4951;50.778;7.196;2023-04-25T00:10:10;7.60;1.00
9824;DHT22;4951;50.778;7.196;2023-04-25T00:12:39;7.50;1.00
9824;DHT22;4951;50.778;7.196;2023-04-25T00:16:27;7.50;1.00
9824;DHT22;4951;50.778;7.196;2023-04-25T00:18:35;7.40;1.00
9824;DHT22;4951;50.778;7.196;2023-04-25T00:21:38;7.40;1.00
9824;DHT22;4951;50.778;7.196;2023-04-25T00:24:23;7.40;1.00
9824;DHT22;4951;50.778;7.196;2023-04-25T00:27:07;7.30;1.00
9824;DHT22;4951;50.778;7.196;2023-04-25T00:29:34;7.30;1.00
9824;DHT22;4951;50.778;7.196;2023-04-25T00:32:13;7.20;60.70
9824;DHT22;4951;50.778;7.196;2023-04-25T00:34:52;7.20;99.90
9824;DHT22;4951;50.778;7.196;2023-04-25T00:37:54;7.10;99.90
9824;DHT22;4951;50.778;7.196;2023-04-25T00:40:28;7.00;99.90
9824;DHT22;4951;50.778;7.196;2023-04-25T00:43:01;6.90;99.90
9824;DHT22;4951;50.778;7.196;2023-04-25T00:45:30;6.80;99.90
9824;DHT22;4951;50.778;7.196;2023-04-25T00:48:09;6.80;1.00
9824;DHT22;4951;50.778;7.196;2023-04-25T00:50:52;6.70;1.00
9824;DHT22;4951;50.778;7.196;2023-04-25T00:53:34;6.70;1.00
9824;DHT22;4951;50.778;7.196;2023-04-25T00:56:12;6.60;1.00
9824;DHT22;4951;50.778;7.196;2023-04-25T00:59:22;6.50;1.00
9824;DHT22;4951;50.778;7.196;2023-04-25T01:01:53;6.50;1.00
9824;DHT22;4951;50.778;7.196;2023-04-25T01:04:36;6.40;1.00
9824;DHT22;4951;50.778;7.196;2023-04-25T01:07:19;6.30;1.00
9824;DHT22;4951;50.778;7.196;2023-04-25T01:09:48;6.30;1.00
9824;DHT22;4951;50.778;7.196;2023-04-25T01:12:43;6.20;14.90
9824;DHT22;4951;50.778;7.196;2023-04-25T01:15:26;6.10;47.50
9824;DHT22;4951;50.778;7.196;2023-04-25T01:18:06;6.00;90.90
9824;DHT22;4951;50.778;7.196;2023-04-25T01:20:39;5.90;99.90
9824;DHT22;4951;50.778;7.196;2023-04-25T01:23:31;5.80;99.90
9824;DHT22;4951;50.778;7.196;2023-04-25T01:26:16;5.70;99.90
9824;DHT22;4951;50.778;7.196;2023-04-25T01:28:50;5.60;99.90
9824;DHT22;4951;50.778;7.196;2023-04-25T01:31:44;5.50;99.90
9824;DHT22;4951;50.778;7.196;2023-04-25T01:34:13;5.40;99.90
9824;DHT22;4951;50.778;7.196;2023-04-25T01:36:48;5.40;1.00
9824;DHT22;4951;50.778;7.196;2023-04-25T01:39:32;5.30;1.00
9824;DHT22;4951;50.778;7.196;2023-04-25T01:42:16;5.20;1.00
9824;DHT22;4951;50.778;7.196;2023-04-25T01:44:59;5.20;1.00
9824;DHT22;4951;50.778;7.196;2023-04-25T01:47:34;5.20;1.00
9824;DHT22;4951;50.778;7.196;2023-04-25T01:50:21;5.10;1.00
9824;DHT22;4951;50.778;7.196;2023-04-25T01:52:57;5.00;1.00
9824;DHT22;4951;50.778;7.196;2023-04-25T01:55:31;5.00;1.00
9824;DHT22;4951;50.778;7.196;2023-04-25T01:58:20;4.90;1.00
9824;DHT22;4951;50.778;7.196;2023-04-25T02:01:23;4.90;1.00
9824;DHT22;4951;50.778;7.196;2023-04-25T02:04:20;4.90;1.00
9824;DHT22;4951;50.778;7.196;2023-04-25T02:06:59;4.90;1.00
9824;DHT22;4951;50.778;7.196;2023-04-25T02:09:37;4.90;1.00
9824;DHT22;4951;50.778;7.196;2023-04-25T02:12:13;5.00;1.00
9824;DHT22;4951;50.778;7.196;2023-04-25T02:15:31;5.00;1.00
9824;DHT22;4951;50.778;7.196;2023-04-25T02:18:19;5.10;29.00
9824;DHT22;4951;50.778;7.196;2023-04-25T02:20:51;5.20;95.40
9824;DHT22;4951;50.778;7.196;2023-04-25T02:23:51;5.40;99.90
9824;DHT22;4951;50.778;7.196;2023-04-25T02:26:21;5.50;99.90
9824;DHT22;4951;50.778;7.196;2023-04-25T02:29:03;5.60;99.90
9824;DHT22;4951;50.778;7.196;2023-04-25T02:31:46;5.80;99.90
9824;DHT22;4951;50.778;7.196;2023-04-25T02:34:19;5.90;99.90
9824;DHT22;4951;50.778;7.196;2023-04-25T02:36:49;6.00;99.90
9824;DHT22;4951;50.778;7.196;2023-04-25T02:39:22;6.10;99.90
9824;DHT22;4951;50.778;7.196;2023-04-25T02:41:57;6.20;99.90
9824;DHT22;4951;50.778;7.196;2023-04-25T02:45:11;6.30;99.90
9824;DHT22;4951;50.778;7.196;2023-04-25T02:48:09;6.30;72.70
9824;DHT22;4951;50.778;7.196;2023-04-25T02:50:40;6.40;30.40
9824;DHT22;4951;50.778;7.196;2023-04-25T02:53:09;6.40;1.00
9824;DHT22;4951;50.778;7.196;2023-04-25T02:55:54;6.40;1.00
9824;DHT22;4951;50.778;7.196;2023-04-25T02:58:46;6.50;1.00
9824;DHT22;4951;50.778;7.196;2023-04-25T03:01:16;6.40;1.00
9824;DHT22;4951;50.778;7.196;2023-04-25T03:03:49;6.40;1.00
9824;DHT22;4951;50.778;7.196;2023-04-25T03:06:50;6.40;1.00
9824;DHT22;4951;50.778;7.196;2023-04-25T03:09:51;6.30;1.00
9824;DHT22;4951;50.778;7.196;2023-04-25T03:12:48;6.20;1.00
9824;DHT22;4951;50.778;7.196;2023-04-25T03:15:44;6.10;1.00
9824;DHT22;4951;50.778;7.196;2023-04-25T03:19:10;6.10;1.00
9824;DHT22;4951;50.778;7.196;2023-04-25T03:21:58;6.00;1.00
9824;DHT22;4951;50.778;7.196;2023-04-25T03:25:08;5.90;1.00
9824;DHT22;4951;50.778;7.196;2023-04-25T03:27:52;5.80;1.00
9824;DHT22;4951;50.778;7.196;2023-04-25T03:30:26;5.80;1.00
9824;DHT22;4951;50.778;7.196;2023-04-25T03:33:00;5.70;15.00
9824;DHT22;4951;50.778;7.196;2023-04-25T03:35:51;5.70;48.00
9824;DHT22;4951;50.778;7.196;2023-04-25T03:38:30;5.70;68.50
9824;DHT22;4951;50.778;7.196;2023-04-25T03:41:00;5.60;86.80
9824;DHT22;4951;50.778;7.196;2023-04-25T03:44:00;5.60;72.80
9824;DHT22;4951;50.778;7.196;2023-04-25T03:50:01;5.50;73.10
9824;DHT22;4951;50.778;7.196;2023-04-25T03:52:35;5.40;99.90
9824;DHT22;4951;50.778;7.196;2023-04-25T03:55:09;5.40;99.90
9824;DHT22;4951;50.778;7.196;2023-04-25T03:57:39;5.50;99.90
9824;DHT22;4951;50.778;7.196;2023-04-25T04:00:17;5.50;99.90
9824;DHT22;4951;50.778;7.196;2023-04-25T04:02:58;5.50;99.90
9824;DHT22;4951;50.778;7.196;2023-04-25T04:05:46;5.50;99.90
9824;DHT22;4951;50.778;7.196;2023-04-25T04:08:39;5.60;99.90
9824;DHT22;4951;50.778;7.196;2023-04-25T04:11:10;5.60;99.90
9824;DHT22;4951;50.778;7.196;2023-04-25T04:13:49;5.60;99.90
9824;DHT22;4951;50.778;7.196;2023-04-25T04:16:19;5.70;99.90
9824;DHT22;4951;50.778;7.196;2023-04-25T04:19:00;5.70;99.90
9824;DHT22;4951;50.778;7.196;2023-04-25T04:21:46;5.70;99.90
9824;DHT22;4951;50.778;7.196;2023-04-25T04:24:22;5.70;99.90
9824;DHT22;4951;50.778;7.196;2023-04-25T04:27:23;5.80;99.90
9824;DHT22;4951;50.778;7.196;2023-04-25T04:30:24;5.80;99.90
9824;DHT22;4951;50.778;7.196;2023-04-25T04:33:09;5.80;99.90
9824;DHT22;4951;50.778;7.196;2023-04-25T04:35:54;5.90;99.90
9824;DHT22;4951;50.778;7.196;2023-04-25T04:38:38;5.90;99.90
9824;DHT22;4951;50.778;7.196;2023-04-25T04:41:10;5.90;99.90
9824;DHT22;4951;50.778;7.196;2023-04-25T04:44:09;5.90;99.90
9824;DHT22;4951;50.778;7.196;2023-04-25T04:46:44;6.00;99.90
9824;DHT22;4951;50.778;7.196;2023-04-25T04:49:30;6.00;99.90
9824;DHT22;4951;50.778;7.196;2023-04-25T04:52:48;6.00;99.90
9824;DHT22;4951;50.778;7.196;2023-04-25T04:55:39;6.10;99.90
9824;DHT22;4951;50.778;7.196;2023-04-25T04:59:26;6.10;99.90
9824;DHT22;4951;50.778;7.196;2023-04-25T05:02:21;6.20;99.90
9824;DHT22;4951;50.778;7.196;2023-04-25T05:05:14;6.20;99.90
9824;DHT22;4951;50.778;7.196;2023-04-25T05:08:19;6.20;99.90
9824;DHT22;4951;50.778;7.196;2023-04-25T05:11:30;6.20;99.90
9824;DHT22;4951;50.778;7.196;2023-04-25T05:14:28;6.30;99.90
9824;DHT22;4951;50.778;7.196;2023-04-25T05:17:19;6.30;99.90
9824;DHT22;4951;50.778;7.196;2023-04-25T05:20:14;6.40;99.90
9824;DHT22;4951;50.778;7.196;2023-04-25T05:23:03;6.50;99.90
9824;DHT22;4951;50.778;7.196;2023-04-25T05:25:52;6.50;99.90
9824;DHT22;4951;50.778;7.196;2023-04-25T05:28:34;6.60;99.90
9824;DHT22;4951;50.778;7.196;2023-04-25T05:31:25;6.70;99.90
9824;DHT22;4951;50.778;7.196;2023-04-25T05:34:00;6.70;99.90
9824;DHT22;4951;50.778;7.196;2023-04-25T05:36:54;6.80;99.90
9824;DHT22;4951;50.778;7.196;2023-04-25T05:39:21;6.90;99.90
9824;DHT22;4951;50.778;7.196;2023-04-25T05:42:27;6.90;99.90
9824;DHT22;4951;50.778;7.196;2023-04-25T05:45:08;7.00;99.90
9824;DHT22;4951;50.778;7.196;2023-04-25T05:48:06;7.00;99.90
9824;DHT22;4951;50.778;7.196;2023-04-25T05:51:00;7.10;99.90
9824;DHT22;4951;50.778;7.196;2023-04-25T05:54:04;7.20;99.90
9824;DHT22;4951;50.778;7.196;2023-04-25T05:56:37;7.20;99.90
9824;DHT22;4951;50.778;7.196;2023-04-25T05:59:17;7.20;99.90
9824;DHT22;4951;50.778;7.196;2023-04-25T06:02:06;7.30;99.90
9824;DHT22;4951;50.778;7.196;2023-04-25T06:05:03;7.50;99.90
9824;DHT22;4951;50.778;7.196;2023-04-25T06:07:35;7.60;99.90
9824;DHT22;4951;50.778;7.196;2023-04-25T06:10:10;7.60;99.90
9824;DHT22;4951;50.778;7.196;2023-04-25T06:12:46;7.60;75.50
9824;DHT22;4951;50.778;7.196;2023-04-25T06:15:51;7.70;40.80
9824;DHT22;4951;50.778;7.196;2023-04-25T06:18:30;7.80;73.20
9824;DHT22;4951;50.778;7.196;2023-04-25T06:21:19;7.90;1.00
9824;DHT22;4951;50.778;7.196;2023-04-25T06:23:55;7.90;1.00
9824;DHT22;4951;50.778;7.196;2023-04-25T06:26:35;8.10;1.00
9824;DHT22;4951;50.778;7.196;2023-04-25T06:29:22;8.10;1.00
9824;DHT22;4951;50.778;7.196;2023-04-25T06:31:59;8.10;1.00
9824;DHT22;4951;50.778;7.196;2023-04-25T06:38:54;8.00;1.00
9824;DHT22;4951;50.778;7.196;2023-04-25T06:41:47;8.10;1.00
9824;DHT22;4951;50.778;7.196;2023-04-25T06:44:59;8.10;99.90
9824;DHT22;4951;50.778;7.196;2023-04-25T06:47:28;8.20;99.90
9824;DHT22;4951;50.778;7.196;2023-04-25T06:50:02;8.20;1.00
9824;DHT22;4951;50.778;7.196;2023-04-25T06:52:55;8.30;1.00
9824;DHT22;4951;50.778;7.196;2023-04-25T06:59:23;8.30;1.00
9824;DHT22;4951;50.778;7.196;2023-04-25T07:02:03;8.30;99.90
9824;DHT22;4951;50.778;7.196;2023-04-25T07:04:31;8.30;99.90
9824;DHT22;4951;50.778;7.196;2023-04-25T07:06:59;8.40;99.90
9824;DHT22;4951;50.778;7.196;2023-04-25T07:09:52;8.60;99.90
9824;DHT22;4951;50.778;7.196;2023-04-25T07:12:26;8.70;1.00
9824;DHT22;4951;50.778;7.196;2023-04-25T07:15:21;8.90;99.90
9824;DHT22;4951;50.778;7.196;2023-04-25T07:18:15;9.20;1.00
9824;DHT22;4951;50.778;7.196;2023-04-25T07:21:19;9.30;99.90
9824;DHT22;4951;50.778;7.196;2023-04-25T07:24:20;9.40;1.00
9824;DHT22;4951;50.778;7.196;2023-04-25T07:27:02;9.60;1.00
9824;DHT22;4951;50.778;7.196;2023-04-25T07:30:00;9.60;99.50
9824;DHT22;4951;50.778;7.196;2023-04-25T07:47:07;9.60;1.00
9824;DHT22;4951;50.778;7.196;2023-04-25T07:49:46;9.60;1.00
9824;DHT22;4951;50.778;7.196;2023-04-25T07:52:27;9.50;1.00
9824;DHT22;4951;50.778;7.196;2023-04-25T07:55:40;9.50;99.90
9824;DHT22;4951;50.778;7.196;2023-04-25T07:59:33;9.40;67.50
9824;DHT22;4951;50.778;7.196;2023-04-25T08:02:58;9.40;69.50
9824;DHT22;4951;50.778;7.196;2023-04-25T08:06:01;9.40;1.00
9824;DHT22;4951;50.778;7.196;2023-04-25T08:08:35;9.40;1.00
9824;DHT22;4951;50.778;7.196;2023-04-25T08:11:17;9.30;1.00
9824;DHT22;4951;50.778;7.196;2023-04-25T08:13:59;9.30;99.90
9824;DHT22;4951;50.778;7.196;2023-04-25T08:17:11;9.40;99.90
9824;DHT22;4951;50.778;7.196;2023-04-25T08:23:04;9.40;99.90
9824;DHT22;4951;50.778;7.196;2023-04-25T08:25:59;9.50;1.00
9824;DHT22;4951;50.778;7.196;2023-04-25T08:28:48;9.40;1.00
9824;DHT22;4951;50.778;7.196;2023-04-25T08:31:30;9.40;1.00
9824;DHT22;4951;50.778;7.196;2023-04-25T08:34:17;9.40;1.00
9824;DHT22;4951;50.778;7.196;2023-04-25T08:37:11;9.50;1.00
9824;DHT22;4951;50.778;7.196;2023-04-25T08:40:13;9.60;99.90
9824;DHT22;4951;50.778;7.196;2023-04-25T08:42:58;9.80;99.90
9824;DHT22;4951;50.778;7.196;2023-04-25T08:45:54;9.90;99.90
9824;DHT22;4951;50.778;7.196;2023-04-25T08:49:30;10.10;1.00
9824;DHT22;4951;50.778;7.196;2023-04-25T08:52:32;10.30;99.90
9824;DHT22;4951;50.778;7.196;2023-04-25T08:55:36;10.40;99.90
9824;DHT22;4951;50.778;7.196;2023-04-25T08:58:18;10.50;4.80
9824;DHT22;4951;50.778;7.196;2023-04-25T09:01:16;10.60;1.00
9824;DHT22;4951;50.778;7.196;2023-04-25T09:04:00;10.60;1.00
9824;DHT22;4951;50.778;7.196;2023-04-25T09:06:49;10.80;1.00
9824;DHT22;4951;50.778;7.196;2023-04-25T09:09:16;10.80;99.90
9824;DHT22;4951;50.778;7.196;2023-04-25T09:11:47;10.90;99.90
9824;DHT22;4951;50.778;7.196;2023-04-25T09:14:23;10.90;1.00
9824;DHT22;4951;50.778;7.196;2023-04-25T09:17:13;10.70;1.00
9824;DHT22;4951;50.778;7.196;2023-04-25T09:20:06;10.60;1.00
9824;DHT22;4951;50.778;7.196;2023-04-25T09:22:35;10.60;1.00
9824;DHT22;4951;50.778;7.196;2023-04-25T09:25:11;10.50;1.00
9824;DHT22;4951;50.778;7.196;2023-04-25T09:27:51;10.40;1.00
9824;DHT22;4951;50.778;7.196;2023-04-25T09:30:41;10.20;1.00
9824;DHT22;4951;50.778;7.196;2023-04-25T09:33:12;10.00;1.00
9824;DHT22;4951;50.778;7.196;2023-04-25T09:35:49;9.80;1.00
9824;DHT22;4951;50.778;7.196;2023-04-25T09:38:45;9.60;1.00
9824;DHT22;4951;50.778;7.196;2023-04-25T09:41:29;9.50;1.00
9824;DHT22;4951;50.778;7.196;2023-04-25T09:44:03;9.40;1.00
9824;DHT22;4951;50.778;7.196;2023-04-25T09:46:37;9.40;1.00
9824;DHT22;4951;50.778;7.196;2023-04-25T09:49:23;9.50;1.00
9824;DHT22;4951;50.778;7.196;2023-04-25T09:52:09;9.50;1.00
9824;DHT22;4951;50.778;7.196;2023-04-25T09:54:51;9.50;1.00
9824;DHT22;4951;50.778;7.196;2023-04-25T09:57:32;9.50;1.00
9824;DHT22;4951;50.778;7.196;2023-04-25T10:00:13;9.50;1.00
9824;DHT22;4951;50.778;7.196;2023-04-25T10:02:44;9.60;1.00
9824;DHT22;4951;50.778;7.196;2023-04-25T10:05:39;9.70;1.00
9824;DHT22;4951;50.778;7.196;2023-04-25T10:08:08;9.80;1.00
9824;DHT22;4951;50.778;7.196;2023-04-25T10:10:36;9.90;1.00
9824;DHT22;4951;50.778;7.196;2023-04-25T10:13:07;10.00;1.00
9824;DHT22;4951;50.778;7.196;2023-04-25T10:15:37;10.20;1.00
9824;DHT22;4951;50.778;7.196;2023-04-25T10:18:19;10.30;1.00
9824;DHT22;4951;50.778;7.196;2023-04-25T10:20:46;10.50;1.00
9824;DHT22;4951;50.778;7.196;2023-04-25T10:23:14;10.50;1.00
9824;DHT22;4951;50.778;7.196;2023-04-25T10:25:47;10.60;1.00
9824;DHT22;4951;50.778;7.196;2023-04-25T10:28:15;10.70;1.00
9824;DHT22;4951;50.778;7.196;2023-04-25T10:31:00;10.80;1.00
9824;DHT22;4951;50.778;7.196;2023-04-25T10:33:35;10.90;1.00
9824;DHT22;4951;50.778;7.196;2023-04-25T10:36:17;10.90;1.00
9824;DHT22;4951;50.778;7.196;2023-04-25T10:38:50;11.00;1.00
9824;DHT22;4951;50.778;7.196;2023-04-25T10:41:45;11.00;1.00
9824;DHT22;4951;50.778;7.196;2023-04-25T10:44:16;11.00;99.90
9824;DHT22;4951;50.778;7.196;2023-04-25T10:47:02;10.90;99.90
9824;DHT22;4951;50.778;7.196;2023-04-25T10:49:43;10.80;99.90
9824;DHT22;4951;50.778;7.196;2023-04-25T10:52:26;10.60;99.90
9824;DHT22;4951;50.778;7.196;2023-04-25T10:54:58;10.40;99.90
9824;DHT22;4951;50.778;7.196;2023-04-25T10:57:31;10.10;99.90
9824;DHT22;4951;50.778;7.196;2023-04-25T11:00:07;10.00;99.90
9824;DHT22;4951;50.778;7.196;2023-04-25T11:02:57;9.90;99.90
9824;DHT22;4951;50.778;7.196;2023-04-25T11:05:57;9.80;99.90
9824;DHT22;4951;50.778;7.196;2023-04-25T11:09:13;9.80;99.90
9824;DHT22;4951;50.778;7.196;2023-04-25T11:11:59;9.80;99.90
9824;DHT22;4951;50.778;7.196;2023-04-25T11:14:41;9.90;99.90
9824;DHT22;4951;50.778;7.196;2023-04-25T11:17:41;10.00;99.90
9824;DHT22;4951;50.778;7.196;2023-04-25T11:20:38;10.10;99.90
9824;DHT22;4951;50.778;7.196;2023-04-25T11:23:42;10.20;99.90
9824;DHT22;4951;50.778;7.196;2023-04-25T11:26:25;10.30;99.90
9824;DHT22;4951;50.778;7.196;2023-04-25T11:29:28;10.30;99.90
9824;DHT22;4951;50.778;7.196;2023-04-25T11:32:14;10.60;1.00
9824;DHT22;4951;50.778;7.196;2023-04-25T11:34:49;11.10;99.90
9824;DHT22;4951;50.778;7.196;2023-04-25T11:37:44;11.40;99.90
9824;DHT22;4951;50.778;7.196;2023-04-25T11:40:31;11.70;99.90
9824;DHT22;4951;50.778;7.196;2023-04-25T11:43:40;11.70;99.90
9824;DHT22;4951;50.778;7.196;2023-04-25T11:46:31;11.50;99.90
9824;DHT22;4951;50.778;7.196;2023-04-25T11:49:40;11.30;99.90
9824;DHT22;4951;50.778;7.196;2023-04-25T11:52:21;11.20;99.90
9824;DHT22;4951;50.778;7.196;2023-04-25T11:55:14;11.10;99.90
9824;DHT22;4951;50.778;7.196;2023-04-25T11:58:12;11.10;99.90
9824;DHT22;4951;50.778;7.196;2023-04-25T12:00:48;11.00;99.90
9824;DHT22;4951;50.778;7.196;2023-04-25T12:03:55;10.90;99.00
9824;DHT22;4951;50.778;7.196;2023-04-25T12:06:45;10.80;74.10
9824;DHT22;4951;50.778;7.196;2023-04-25T12:09:32;10.70;51.40
9824;DHT22;4951;50.778;7.196;2023-04-25T12:12:41;10.70;91.20
9824;DHT22;4951;50.778;7.196;2023-04-25T12:15:24;10.70;99.60
9824;DHT22;4951;50.778;7.196;2023-04-25T12:18:49;10.80;99.90
9824;DHT22;4951;50.778;7.196;2023-04-25T12:21:58;10.90;99.90
9824;DHT22;4951;50.778;7.196;2023-04-25T12:24:33;11.00;99.90
9824;DHT22;4951;50.778;7.196;2023-04-25T12:27:14;11.10;99.30
9824;DHT22;4951;50.778;7.196;2023-04-25T12:34:14;11.40;1.00
9824;DHT22;4951;50.778;7.196;2023-04-25T12:38:09;11.40;1.00
9824;DHT22;4951;50.778;7.196;2023-04-25T12:41:41;11.60;1.00
9824;DHT22;4951;50.778;7.196;2023-04-25T12:44:20;12.10;29.50
9824;DHT22;4951;50.778;7.196;2023-04-25T12:47:25;12.50;1.00
9824;DHT22;4951;50.778;7.196;2023-04-25T12:50:12;12.90;1.00
9824;DHT22;4951;50.778;7.196;2023-04-25T12:52:57;13.30;1.00
9824;DHT22;4951;50.778;7.196;2023-04-25T12:55:37;14.00;1.00
9824;DHT22;4951;50.778;7.196;2023-04-25T12:58:21;14.70;1.00
9824;DHT22;4951;50.778;7.196;2023-04-25T13:01:00;15.30;1.00
9824;DHT22;4951;50.778;7.196;2023-04-25T13:04:06;15.90;1.00
9824;DHT22;4951;50.778;7.196;2023-04-25T13:07:25;16.20;1.00
9824;DHT22;4951;50.778;7.196;2023-04-25T13:10:02;16.10;1.00
9824;DHT22;4951;50.778;7.196;2023-04-25T13:13:12;16.30;1.00
9824;DHT22;4951;50.778;7.196;2023-04-25T13:15:46;17.00;1.00
9824;DHT22;4951;50.778;7.196;2023-04-25T13:18:44;17.60;1.00
9824;DHT22;4951;50.778;7.196;2023-04-25T13:21:58;17.90;99.90
9824;DHT22;4951;50.778;7.196;2023-04-25T13:25:07;17.50;99.90
9824;DHT22;4951;50.778;7.196;2023-04-25T13:27:38;16.50;99.90
9824;DHT22;4951;50.778;7.196;2023-04-25T13:30:38;16.00;99.90
9824;DHT22;4951;50.778;7.196;2023-04-25T13:33:36;15.30;99.90
9824;DHT22;4951;50.778;7.196;2023-04-25T13:36:28;14.60;99.90
9824;DHT22;4951;50.778;7.196;2023-04-25T13:39:10;14.00;99.90
9824;DHT22;4951;50.778;7.196;2023-04-25T13:41:41;13.50;99.90
9824;DHT22;4951;50.778;7.196;2023-04-25T13:44:19;13.10;99.90
9824;DHT22;4951;50.778;7.196;2023-04-25T13:47:13;12.80;99.90
9824;DHT22;4951;50.778;7.196;2023-04-25T13:49:55;12.60;99.90
9824;DHT22;4951;50.778;7.196;2023-04-25T13:52:24;12.30;99.90
9824;DHT22;4951;50.778;7.196;2023-04-25T13:58:02;12.00;99.90
9824;DHT22;4951;50.778;7.196;2023-04-25T14:01:30;11.80;99.90
9824;DHT22;4951;50.778;7.196;2023-04-25T14:04:17;11.60;99.90
9824;DHT22;4951;50.778;7.196;2023-04-25T14:06:46;11.60;99.90
9824;DHT22;4951;50.778;7.196;2023-04-25T14:09:38;11.50;99.90
9824;DHT22;4951;50.778;7.196;2023-04-25T14:12:05;11.40;99.90
9824;DHT22;4951;50.778;7.196;2023-04-25T14:14:35;11.40;99.90
9824;DHT22;4951;50.778;7.196;2023-04-25T14:17:03;11.50;99.90
9824;DHT22;4951;50.778;7.196;2023-04-25T14:19:36;11.70;99.90
9824;DHT22;4951;50.778;7.196;2023-04-25T14:22:19;11.90;99.90
9824;DHT22;4951;50.778;7.196;2023-04-25T14:28:07;12.30;99.90
9824;DHT22;4951;50.778;7.196;2023-04-25T14:31:20;12.50;99.90
9824;DHT22;4951;50.778;7.196;2023-04-25T14:34:08;12.70;99.90
9824;DHT22;4951;50.778;7.196;2023-04-25T14:36:46;13.10;99.90
9824;DHT22;4951;50.778;7.196;2023-04-25T14:39:30;13.50;99.90
9824;DHT22;4951;50.778;7.196;2023-04-25T14:42:20;14.20;99.90
9824;DHT22;4951;50.778;7.196;2023-04-25T14:45:11;15.30;99.90
9824;DHT22;4951;50.778;7.196;2023-04-25T14:51:28;16.30;99.90
9824;DHT22;4951;50.778;7.196;2023-04-25T14:54:03;16.80;99.90
9824;DHT22;4951;50.778;7.196;2023-04-25T14:56:38;17.40;99.90
9824;DHT22;4951;50.778;7.196;2023-04-25T14:59:19;17.90;99.90
9824;DHT22;4951;50.778;7.196;2023-04-25T15:02:15;18.30;99.90
9824;DHT22;4951;50.778;7.196;2023-04-25T15:05:10;18.30;99.90
9824;DHT22;4951;50.778;7.196;2023-04-25T15:07:46;17.50;99.90
9824;DHT22;4951;50.778;7.196;2023-04-25T15:10:19;16.70;99.90
9824;DHT22;4951;50.778;7.196;2023-04-25T15:12:52;16.00;99.90
9824;DHT22;4951;50.778;7.196;2023-04-25T15:15:43;15.30;99.90
9824;DHT22;4951;50.778;7.196;2023-04-25T15:18:27;14.70;99.90
9824;DHT22;4951;50.778;7.196;2023-04-25T15:21:30;14.10;99.90
9824;DHT22;4951;50.778;7.196;2023-04-25T15:24:14;13.60;99.90
9824;DHT22;4951;50.778;7.196;2023-04-25T15:30:01;13.00;99.90
9824;DHT22;4951;50.778;7.196;2023-04-25T15:32:34;12.90;99.90
9824;DHT22;4951;50.778;7.196;2023-04-25T15:35:04;13.00;99.90
9824;DHT22;4951;50.778;7.196;2023-04-25T15:37:32;13.30;99.90
9824;DHT22;4951;50.778;7.196;2023-04-25T15:40:05;13.50;99.90
9824;DHT22;4951;50.778;7.196;2023-04-25T15:42:41;13.80;99.90
9824;DHT22;4951;50.778;7.196;2023-04-25T15:45:30;14.10;99.90
9824;DHT22;4951;50.778;7.196;2023-04-25T15:48:10;14.20;99.90
9824;DHT22;4951;50.778;7.196;2023-04-25T15:51:05;14.20;99.90
9824;DHT22;4951;50.778;7.196;2023-04-25T15:53:57;14.20;99.90
9824;DHT22;4951;50.778;7.196;2023-04-25T15:56:53;14.40;99.90
9824;DHT22;4951;50.778;7.196;2023-04-25T15:59:31;14.70;99.90
9824;DHT22;4951;50.778;7.196;2023-04-25T16:02:23;14.90;99.90
9824;DHT22;4951;50.778;7.196;2023-04-25T16:05:09;14.90;99.90
9824;DHT22;4951;50.778;7.196;2023-04-25T16:08:05;14.50;99.90
9824;DHT22;4951;50.778;7.196;2023-04-25T16:10:54;14.00;99.90
9824;DHT22;4951;50.778;7.196;2023-04-25T16:13:29;13.60;99.90
9824;DHT22;4951;50.778;7.196;2023-04-25T16:16:06;13.20;99.90
9824;DHT22;4951;50.778;7.196;2023-04-25T16:18:44;12.80;99.90
9824;DHT22;4951;50.778;7.196;2023-04-25T16:21:48;12.40;99.90
9824;DHT22;4951;50.778;7.196;2023-04-25T16:24:20;12.00;99.90
9824;DHT22;4951;50.778;7.196;2023-04-25T16:26:50;11.70;99.90
9824;DHT22;4951;50.778;7.196;2023-04-25T16:29:24;11.60;99.90
9824;DHT22;4951;50.778;7.196;2023-04-25T16:31:57;11.50;99.90
9824;DHT22;4951;50.778;7.196;2023-04-25T16:34:31;11.50;99.90
9824;DHT22;4951;50.778;7.196;2023-04-25T16:37:17;11.50;99.90
9824;DHT22;4951;50.778;7.196;2023-04-25T16:39:49;11.50;99.90
9824;DHT22;4951;50.778;7.196;2023-04-25T16:42:23;11.60;99.90
9824;DHT22;4951;50.778;7.196;2023-04-25T16:44:53;11.50;99.90
9824;DHT22;4951;50.778;7.196;2023-04-25T16:47:52;11.50;99.90
9824;DHT22;4951;50.778;7.196;2023-04-25T16:50:41;11.40;99.90
9824;DHT22;4951;50.778;7.196;2023-04-25T16:53:11;11.30;99.90
9824;DHT22;4951;50.778;7.196;2023-04-25T16:56:06;11.20;99.90
9824;DHT22;4951;50.778;7.196;2023-04-25T16:58:58;11.20;99.90
9824;DHT22;4951;50.778;7.196;2023-04-25T17:01:28;11.20;99.90
9824;DHT22;4951;50.778;7.196;2023-04-25T17:04:05;11.20;99.90
9824;DHT22;4951;50.778;7.196;2023-04-25T17:06:33;11.20;99.90
9824;DHT22;4951;50.778;7.196;2023-04-25T17:09:05;11.20;99.90
9824;DHT22;4951;50.778;7.196;2023-04-25T17:11:37;11.10;99.90
9824;DHT22;4951;50.778;7.196;2023-04-25T17:14:14;11.10;99.90
9824;DHT22;4951;50.778;7.196;2023-04-25T17:16:44;11.00;99.90
9824;DHT22;4951;50.778;7.196;2023-04-25T17:19:18;10.90;99.90
9824;DHT22;4951;50.778;7.196;2023-04-25T17:21:56;10.80;99.90
9824;DHT22;4951;50.778;7.196;2023-04-25T17:24:26;10.60;99.90
9824;DHT22;4951;50.778;7.196;2023-04-25T17:27:06;10.50;99.90
9824;DHT22;4951;50.778;7.196;2023-04-25T17:29:50;10.40;99.90
9824;DHT22;4951;50.778;7.196;2023-04-25T17:32:36;10.30;99.90
9824;DHT22;4951;50.778;7.196;2023-04-25T17:35:03;10.20;99.90
9824;DHT22;4951;50.778;7.196;2023-04-25T17:37:33;10.20;99.90
9824;DHT22;4951;50.778;7.196;2023-04-25T17:40:08;10.20;99.90
9824;DHT22;4951;50.778;7.196;2023-04-25T17:42:38;10.20;99.90
9824;DHT22;4951;50.778;7.196;2023-04-25T17:45:08;10.10;99.90
9824;DHT22;4951;50.778;7.196;2023-04-25T17:47:40;10.10;99.90
9824;DHT22;4951;50.778;7.196;2023-04-25T17:50:31;10.20;99.90
9824;DHT22;4951;50.778;7.196;2023-04-25T17:53:01;10.20;99.90
9824;DHT22;4951;50.778;7.196;2023-04-25T17:55:29;10.20;99.90
9824;DHT22;4951;50.778;7.196;2023-04-25T17:58:02;10.20;99.90
9824;DHT22;4951;50.778;7.196;2023-04-25T18:00:29;10.30;99.90
9824;DHT22;4951;50.778;7.196;2023-04-25T18:03:03;10.20;99.90
9824;DHT22;4951;50.778;7.196;2023-04-25T18:05:33;10.10;99.90
9824;DHT22;4951;50.778;7.196;2023-04-25T18:08:09;10.10;99.90
9824;DHT22;4951;50.778;7.196;2023-04-25T18:10:36;10.00;99.90
9824;DHT22;4951;50.778;7.196;2023-04-25T18:13:03;10.00;99.90
9824;DHT22;4951;50.778;7.196;2023-04-25T18:15:30;9.90;99.90
9824;DHT22;4951;50.778;7.196;2023-04-25T18:17:59;9.80;99.90
9824;DHT22;4951;50.778;7.196;2023-04-25T18:20:42;9.70;99.90
9824;DHT22;4951;50.778;7.196;2023-04-25T18:23:14;9.70;99.90
9824;DHT22;4951;50.778;7.196;2023-04-25T18:25:41;9.50;99.90
9824;DHT22;4951;50.778;7.196;2023-04-25T18:28:20;9.50;99.90
9824;DHT22;4951;50.778;7.196;2023-04-25T18:30:58;9.30;99.90
9824;DHT22;4951;50.778;7.196;2023-04-25T18:34:21;9.20;99.90
9824;DHT22;4951;50.778;7.196;2023-04-25T18:36:55;9.10;99.90
9824;DHT22;4951;50.778;7.196;2023-04-25T18:39:53;9.00;99.90
9824;DHT22;4951;50.778;7.196;2023-04-25T18:42:21;9.00;99.90
9824;DHT22;4951;50.778;7.196;2023-04-25T18:44:48;8.90;99.90
9824;DHT22;4951;50.778;7.196;2023-04-25T18:47:16;8.90;99.90
9824;DHT22;4951;50.778;7.196;2023-04-25T18:49:53;8.90;99.90
9824;DHT22;4951;50.778;7.196;2023-04-25T18:52:20;8.80;99.90
9824;DHT22;4951;50.778;7.196;2023-04-25T18:54:47;8.70;99.90
9824;DHT22;4951;50.778;7.196;2023-04-25T18:57:17;8.70;99.90
9824;DHT22;4951;50.778;7.196;2023-04-25T18:59:44;8.60;99.90